»·PEaware :: N333ZA KBUR-F70

N333ZA :: KBUR-F70

FLIGHT INFORMATION

Flight Status: Arrived
Operator: Privately registered:
United States
More flights under this callsign
Pilot: Judd H. (29974)
Aircraft: CESSNA 210 CENTURION
(C210)
More flights by this aircraft type
Origin: KBUR Bob Hope-Burbank
United States
Destination: F70 French Valley
United States
More flights between these airports :: More routes between these airports
Route: +ELMOO9 ELMOO V186 PDZ PDZ092 JESEX
File this flight plan on PilotEdge
Remarks:
Altitude:
(Current/Filed)
5,000ft
Speed:
(Current/Filed)
150kts
Departed: 29-Oct-20 05:36 PM
Arrived: 29-Oct-20 06:24 PM
Distance/Time
Traveled:
72nm/0:48
Distance/Time
To Go:
Arrived

Flight Plot

Page will automatically refresh every two minutes.

Flight plan parsing failed; only flown route is shown


Map Options




Map Legend


Flown Route
Filed Route
Departure Airport
Arrival Airport
Navaid (VOR, NDB)
Fix

Horizontal Profiles

Position Reports

Time Latitude Longitude Heading Altitude Ground
Speed
29-Oct-20 17:17 34.205267 -118.360147 73 724ft 0kts
29-Oct-20 17:18 34.205267 -118.360147 73 724ft 0kts
29-Oct-20 17:19 34.205267 -118.360146 73 724ft 0kts
29-Oct-20 17:20 34.205268 -118.360142 72 724ft 0kts
29-Oct-20 17:21 34.205268 -118.360141 72 724ft 0kts
29-Oct-20 17:22 34.205268 -118.360140 73 724ft 0kts
29-Oct-20 17:23 34.205269 -118.360139 73 724ft 0kts
29-Oct-20 17:24 34.205269 -118.360138 73 724ft 0kts
29-Oct-20 17:25 34.205269 -118.360137 73 724ft 0kts
29-Oct-20 17:26 34.205270 -118.360136 73 724ft 0kts
29-Oct-20 17:27 34.205270 -118.360135 73 724ft 0kts
29-Oct-20 17:28 34.205270 -118.360133 73 724ft 0kts
29-Oct-20 17:29 34.205270 -118.360132 73 724ft 0kts
29-Oct-20 17:30 34.205271 -118.360131 73 724ft 0kts
29-Oct-20 17:31 34.205271 -118.360130 73 724ft 0kts
29-Oct-20 17:32 34.208264 -118.360458 346 724ft 16kts
29-Oct-20 17:33 34.212028 -118.361281 27 724ft 0kts
29-Oct-20 17:34 34.212048 -118.361268 32 724ft 3kts
29-Oct-20 17:35 34.201767 -118.357557 167 865ft 111kts
29-Oct-20 17:36 34.179430 -118.327122 117 1928ft 129kts
29-Oct-20 17:37 34.162825 -118.289518 116 2716ft 126kts
29-Oct-20 17:38 34.150094 -118.250545 109 3564ft 124kts
29-Oct-20 17:39 34.138015 -118.210436 109 4543ft 127kts
29-Oct-20 17:40 34.125643 -118.166549 107 5059ft 152kts
29-Oct-20 17:42 34.109738 -118.114952 110 5208ft 180kts
29-Oct-20 17:43 34.095348 -118.059177 109 5074ft 157kts
29-Oct-20 17:44 34.079233 -118.009764 113 4962ft 157kts
29-Oct-20 17:45 34.060660 -117.962370 114 4968ft 159kts
29-Oct-20 17:46 34.045187 -117.921604 113 4992ft 155kts
29-Oct-20 17:47 34.035380 -117.871123 91 4982ft 157kts
29-Oct-20 17:48 34.023411 -117.822268 114 5032ft 168kts
29-Oct-20 17:49 34.002381 -117.772874 110 5006ft 163kts
29-Oct-20 17:50 33.985939 -117.723228 110 5331ft 148kts
29-Oct-20 17:51 33.970621 -117.678893 110 6048ft 136kts
29-Oct-20 17:52 33.948499 -117.642454 141 6794ft 142kts
29-Oct-20 17:53 33.914005 -117.608240 134 7029ft 178kts
29-Oct-20 17:54 33.876833 -117.566450 134 7023ft 184kts
29-Oct-20 17:55 33.837376 -117.526643 141 7023ft 186kts
29-Oct-20 17:56 33.796141 -117.488992 139 7023ft 185kts
29-Oct-20 17:57 33.756791 -117.448985 135 7023ft 185kts
29-Oct-20 17:58 33.720564 -117.407525 134 7036ft 175kts
29-Oct-20 17:59 33.682809 -117.369739 139 7038ft 178kts
29-Oct-20 18:00 33.644416 -117.331574 139 7037ft 180kts
29-Oct-20 18:00 33.612124 -117.299367 139 7037ft 181kts
29-Oct-20 18:02 33.566573 -117.254131 139 7038ft 182kts
29-Oct-20 18:02 33.534080 -117.222186 139 6704ft 179kts
29-Oct-20 18:04 33.509420 -117.165113 84 5891ft 172kts
29-Oct-20 18:04 33.541270 -117.141756 11 5336ft 175kts
29-Oct-20 18:06 33.594565 -117.129093 12 5036ft 158kts
29-Oct-20 18:06 33.630030 -117.120228 12 5039ft 154kts
29-Oct-20 18:07 33.671375 -117.110353 11 5095ft 151kts
29-Oct-20 18:08 33.713045 -117.100554 11 5088ft 155kts
29-Oct-20 18:09 33.754552 -117.086165 16 5098ft 151kts
29-Oct-20 18:10 33.793201 -117.071873 14 5039ft 147kts
29-Oct-20 18:11 33.832492 -117.069638 339 4955ft 146kts
29-Oct-20 18:12 33.870948 -117.079560 354 5040ft 142kts
29-Oct-20 18:13 33.905760 -117.062046 65 4772ft 159kts
29-Oct-20 18:14 33.881532 -117.039487 202 4622ft 155kts
29-Oct-20 18:15 33.841314 -117.057171 199 4622ft 153kts
29-Oct-20 18:16 33.799424 -117.067185 193 4599ft 153kts
29-Oct-20 18:17 33.757218 -117.077377 193 4443ft 160kts
29-Oct-20 18:18 33.713602 -117.089418 194 3921ft 157kts
29-Oct-20 18:19 33.672473 -117.102464 193 3264ft 148kts
29-Oct-20 18:20 33.635456 -117.112515 193 2509ft 109kts
29-Oct-20 18:21 33.609165 -117.119285 191 1937ft 102kts
29-Oct-20 18:22 33.583143 -117.126077 190 1400ft 76kts
29-Oct-20 18:23 33.577859 -117.128168 310 1353ft 5kts
29-Oct-20 18:24 33.576185 -117.129553 192 1353ft 11kts
29-Oct-20 18:25 33.575698 -117.130353 104 1353ft 0kts
29-Oct-20 18:26 33.575698 -117.130353 104 1353ft 0kts

Navigation Log

Ident Type
Flight plan parsing failed, navigation log unavailable